Terminal Aerodrome Forecast
Issued by NWS Grand Forks, ND

Home | Current Version | Previous Version | Graphics & Text | Print | Product List | Glossary On
Versions: 1 2 3 4 5 6 7 8 9 10 11 12 13 14 15 16
474
FTUS43 KFGF 191736 AAA
TAFFAR
TAF AMD
KFAR 191736Z 1918/2018 32011KT P6SM SCT070
     FM192000 31012KT P6SM BKN070
     FM200000 33008KT P6SM VCTS BKN080CB
     FM200200 35004KT P6SM BKN090
     FM200600 33005KT P6SM SCT200=

USA.gov is the U.S. government's official web portal to all federal, state and local government web resources and services.